Perseverance — WDD5594 — position and weather

sailwx.info

Track history (hours):
 
Tides and Currents Weather Stations Pressure Air Temp Water Temp Dewpoint Dewpoint Depression Visibility Wind Speed Wind Dir Waves Ship Positions

Perseverance

Owner: Cooper, Mark E, Toledo, OR. More information available from US FCC via Universal Licensing System and Coast Guard Vessel Documentation Center.

Last reported at 2017-Jul-24 13:00 UTC. Time now 2017-Jul-24 14:23 UTC.
Position N 46°38' W 124°20'.

Type: Fishing. MMSI: 367618000.

Date/timePositionNaut miles runAvg speedWind from/ knotsBaromVisibWave heightAir tempDewpointWater temp
2017-Jul-24 13:00N 46°38' W 124°20'3 6.9
2017-Jul-24 12:31N 46°42' W 124°22'4 7.1
2017-Jul-24 12:00N 46°45' W 124°23'4 7.1
2017-Jul-24 11:30N 46°48' W 124°25'4 7.1
2017-Jul-24 11:00N 46°52' W 124°27'4 7.3
2017-Jul-24 10:30N 46°55' W 124°29'4 7.5
2017-Jul-24 10:01N 46°59' W 124°31'3 6.5
2017-Jul-24 09:31N 47°02' W 124°33'3 6.7
2017-Jul-24 09:00N 47°05' W 124°35'4 7.4
2017-Jul-24 08:30N 47°08' W 124°37'6 7.7
2017-Jul-24 07:47N 47°13' W 124°40'2 7.7
2017-Jul-24 07:30N 47°15' W 124°41'4 7.6
2017-Jul-24 06:59N 47°19' W 124°43'10 0.4
2017-Jul-23 06:33N 47°10' W 124°49'0 8.8
2017-Jul-23 06:30N 47°10' W 124°49'4 8.4
2017-Jul-23 06:00N 47°06' W 124°47'5 8.3
2017-Jul-23 05:24N 47°01' W 124°45'3 8.5
2017-Jul-23 05:00N 46°58' W 124°44'4 7.2
2017-Jul-23 04:30N 46°55' W 124°42'4 8.8
2017-Jul-23 04:01N 46°51' W 124°40'5 9.0
2017-Jul-23 03:31N 46°46' W 124°37'5 9.5
2017-Jul-23 03:00N 46°42' W 124°35'5 9.1
2017-Jul-23 02:30N 46°38' W 124°33'4 7.2
2017-Jul-23 02:01N 46°34' W 124°32'2 3.5
2017-Jul-23 01:31N 46°32' W 124°32'3 6.8
2017-Jul-23 01:01N 46°29' W 124°31'3 5.3
2017-Jul-23 00:30N 46°27' W 124°32'4 8.1
2017-Jul-23 00:00N 46°24' W 124°28'5 8.9
2017-Jul-22 23:27N 46°22' W 124°21'4 8.7
2017-Jul-22 23:00N 46°20' W 124°17'5 9.2
2017-Jul-22 22:30N 46°17' W 124°11'5 9.5
2017-Jul-22 22:01N 46°15' W 124°05'5 9.2
2017-Jul-22 21:30N 46°14' W 123°58'4 8.6
2017-Jul-22 21:01N 46°11' W 123°53'1 1.8
2017-Jul-22 20:30N 46°11' W 123°52'0 0.0
2017-Jul-22 20:01N 46°11' W 123°52'0 0.0
2017-Jul-22 19:31N 46°11' W 123°52'0 0.0
2017-Jul-22 19:00N 46°11' W 123°52'0 0.0
2017-Jul-22 18:31N 46°11' W 123°52'0 0.0
2017-Jul-22 18:00N 46°11' W 123°52'0 0.0
2017-Jul-22 17:31N 46°11' W 123°52'0 0.0
2017-Jul-22 17:01N 46°11' W 123°52'0 0.0
2017-Jul-22 16:31N 46°11' W 123°52'0 0.0
2017-Jul-22 16:00N 46°11' W 123°52'0 0.0
2017-Jul-22 15:31N 46°11' W 123°52'0 0.0
2017-Jul-22 15:01N 46°11' W 123°52'0 0.0
2017-Jul-22 14:00N 46°11' W 123°52'0 0.0
2017-Jul-22 13:31N 46°11' W 123°52'0 0.0
2017-Jul-22 13:01N 46°11' W 123°52'0 0.0
2017-Jul-22 12:31N 46°11' W 123°52'0 0.0
2017-Jul-22 12:00N 46°11' W 123°52'0 0.0
2017-Jul-22 11:31N 46°11' W 123°52'0 0.0
2017-Jul-22 11:00N 46°11' W 123°52'0 0.0
2017-Jul-22 10:30N 46°11' W 123°52'0 0.0
2017-Jul-22 10:01N 46°11' W 123°52'0 0.0
2017-Jul-22 09:30N 46°11' W 123°52'0 0.0
2017-Jul-22 09:01N 46°11' W 123°52'0 0.0
2017-Jul-22 08:31N 46°11' W 123°52'0 0.0
2017-Jul-22 08:00N 46°11' W 123°52'0 0.0
2017-Jul-22 07:31N 46°11' W 123°52'0 0.0
2017-Jul-22 07:00N 46°11' W 123°52'0 0.0
2017-Jul-22 06:30N 46°11' W 123°52'0 0.0
2017-Jul-22 06:00N 46°11' W 123°52'0 0.0
2017-Jul-22 05:30N 46°11' W 123°52'0 0.0
2017-Jul-22 05:00N 46°11' W 123°52'0 0.0
2017-Jul-22 04:30N 46°11' W 123°52'0 0.0
2017-Jul-22 04:00N 46°11' W 123°52'0 0.0
2017-Jul-22 03:31N 46°11' W 123°52'0 0.0
2017-Jul-22 03:00N 46°11' W 123°52'0 0.0
2017-Jul-22 02:30N 46°11' W 123°52'0 0.0
2017-Jul-22 02:00N 46°11' W 123°52'0 0.0
2017-Jul-22 01:30N 46°11' W 123°52'0 0.0
2017-Jul-22 01:01N 46°11' W 123°52'0 0.0
2017-Jul-22 00:31N 46°11' W 123°52'0 0.0
2017-Jul-22 00:00N 46°11' W 123°52'0 0.0
2017-Jul-21 23:30N 46°11' W 123°52'0 0.0
2017-Jul-21 23:00N 46°11' W 123°52'0 0.0
2017-Jul-21 22:30N 46°11' W 123°52'0 0.0
2017-Jul-21 22:00N 46°11' W 123°52'0 0.0
2017-Jul-21 21:30N 46°11' W 123°52'1 2.1
2017-Jul-21 21:00N 46°12' W 123°50'0 0.0
2017-Jul-21 20:31N 46°12' W 123°50'1 2.2
2017-Jul-21 20:01N 46°11' W 123°52'0 0.0
2017-Jul-21 19:30N 46°11' W 123°52'0 0.0
2017-Jul-21 19:00N 46°11' W 123°52'0 0.0
2017-Jul-21 18:30N 46°11' W 123°52'0 0.0
2017-Jul-21 18:00N 46°11' W 123°52'0 0.0
2017-Jul-21 17:30N 46°11' W 123°52'0 0.0
2017-Jul-21 17:01N 46°11' W 123°52'0 0.0
2017-Jul-21 16:30N 46°11' W 123°52'0 0.0
2017-Jul-21 16:00N 46°11' W 123°52'3 5.1
2017-Jul-21 15:30N 46°12' W 123°55'3 6.7
2017-Jul-21 15:01N 46°14' W 123°59'4 7.3
2017-Jul-21 14:31N 46°15' W 124°04'3 5.7
2017-Jul-21 14:00N 46°17' W 124°07'3 6.1
2017-Jul-21 13:31N 46°20' W 124°09'3 6.3
2017-Jul-21 13:00N 46°23' W 124°11'3 6.7
2017-Jul-21 12:30N 46°26' W 124°13'3 6.8
2017-Jul-21 12:00N 46°29' W 124°15'3 6.8
2017-Jul-21 11:30N 46°32' W 124°17'3 6.7
2017-Jul-21 11:00N 46°35' W 124°20'3 6.7
2017-Jul-21 10:31N 46°38' W 124°22'3 6.9
2017-Jul-21 10:00N 46°41' W 124°24'4 7.1
2017-Jul-21 09:31N 46°44' W 124°26'4 7.3
2017-Jul-21 09:00N 46°48' W 124°28'4 7.3
2017-Jul-21 08:30N 46°51' W 124°30'4 7.3
2017-Jul-21 08:00N 46°54' W 124°33'4 7.3
2017-Jul-21 07:30N 46°57' W 124°35'4 7.3
2017-Jul-21 07:00N 47°01' W 124°38'7 0.4
2017-Jul-20 15:35N 47°07' W 124°39'3 9.8
2017-Jul-20 15:14N 47°04' W 124°37'4 9.6
2017-Jul-20 14:46N 46°60' W 124°35'810.4
2017-Jul-20 14:00N 46°53' W 124°31'510.1
2017-Jul-20 13:31N 46°48' W 124°28'510.1
2017-Jul-20 13:00N 46°43' W 124°25'510.4
2017-Jul-20 12:30N 46°38' W 124°23'510.5
2017-Jul-20 12:01N 46°33' W 124°20'510.3
2017-Jul-20 11:30N 46°29' W 124°17'510.0
2017-Jul-20 11:00N 46°24' W 124°15'510.1
2017-Jul-20 10:30N 46°19' W 124°12'510.6
2017-Jul-20 10:01N 46°15' W 124°07'612.8
2017-Jul-20 09:31N 46°14' W 123°58'5 9.8
2017-Jul-20 09:00N 46°11' W 123°52'0 0.0
2017-Jul-20 08:30N 46°11' W 123°52'0 0.0
2017-Jul-20 08:01N 46°11' W 123°52'0 0.0
2017-Jul-20 07:30N 46°11' W 123°52'0 0.0
2017-Jul-20 07:01N 46°11' W 123°52'0 0.0
2017-Jul-20 06:31N 46°11' W 123°52'0 0.0
2017-Jul-20 06:01N 46°11' W 123°52'0 0.0
2017-Jul-20 05:30N 46°11' W 123°52'0 0.0
2017-Jul-20 05:01N 46°11' W 123°52'0 0.0
2017-Jul-20 04:30N 46°11' W 123°52'0 0.0
2017-Jul-20 04:00N 46°11' W 123°52'0 0.0
2017-Jul-20 03:30N 46°11' W 123°52'2 3.4
2017-Jul-20 03:00N 46°12' W 123°54'5 9.2
2017-Jul-20 02:30N 46°14' W 123°60'510.3
2017-Jul-20 02:00N 46°16' W 124°07'4 8.6
2017-Jul-20 01:30N 46°19' W 124°10'4 8.6
2017-Jul-20 01:01N 46°23' W 124°13'5 9.2
2017-Jul-20 00:31N 46°27' W 124°16'5 9.4
2017-Jul-20 00:00N 46°31' W 124°19'5 9.2
2017-Jul-19 23:30N 46°36' W 124°22'5 9.3
2017-Jul-19 23:00N 46°40' W 124°25'5 9.8
2017-Jul-19 22:30N 46°44' W 124°28'5 9.7
2017-Jul-19 22:00N 46°49' W 124°31'5 9.7
2017-Jul-19 21:30N 46°53' W 124°34'5 9.8
2017-Jul-19 21:00N 46°57' W 124°37'5 9.3
2017-Jul-19 20:30N 47°02' W 124°40'34 3.9
2017-Jul-19 11:34N 47°33' W 124°60'0 3.7
2017-Jul-19 11:30N 47°34' W 125°00'3 4.2
2017-Jul-19 10:54N 47°36' W 125°02'0 0.3
2017-Jul-19 10:30N 47°36' W 125°02'0 0.2
2017-Jul-19 10:00N 47°36' W 125°02'0 0.3
2017-Jul-19 09:30N 47°36' W 125°02'0 0.3
2017-Jul-19 08:55N 47°36' W 125°03'0 0.4
2017-Jul-19 08:26N 47°36' W 125°03'0 0.4
2017-Jul-19 08:00N 47°36' W 125°03'0 0.4
2017-Jul-19 07:25N 47°37' W 125°03'0 0.4
2017-Jul-19 06:59N 47°37' W 125°03'0 0.4
2017-Jul-19 06:30N 47°37' W 125°04'0 0.6
2017-Jul-19 05:52N 47°37' W 125°04'0 0.5
2017-Jul-19 05:29N 47°37' W 125°04'0 0.3
2017-Jul-19 04:58N 47°37' W 125°05'0 0.9
2017-Jul-19 04:28N 47°36' W 125°05'2 4.2
2017-Jul-19 03:52N 47°34' W 125°03'0 0.7
2017-Jul-19 03:30N 47°34' W 125°03'2 2.6
2017-Jul-19 02:39N 47°36' W 125°05'1 4.4
2017-Jul-19 02:30N 47°37' W 125°05'1 2.5
2017-Jul-19 01:58N 47°36' W 125°04'4 3.1
2017-Jul-19 00:38N 47°32' W 125°01'1 8.1
2017-Jul-19 00:30N 47°33' W 125°02'11 6.6
2017-Jul-18 22:52N 47°27' W 124°49'1 2.6
2017-Jul-18 22:23N 47°27' W 124°51'4 7.4
2017-Jul-18 21:51N 47°24' W 124°47'3 8.7
2017-Jul-18 21:30N 47°21' W 124°46'4 7.6
2017-Jul-18 21:00N 47°18' W 124°46'4 7.6
2017-Jul-18 20:30N 47°14' W 124°47'4 8.2
2017-Jul-18 20:00N 47°10' W 124°48'4 7.9
2017-Jul-18 19:30N 47°07' W 124°51'4 7.4
2017-Jul-18 19:00N 47°03' W 124°48'4 8.1
2017-Jul-18 18:30N 46°60' W 124°49'4 8.5
2017-Jul-18 18:01N 46°55' W 124°49'4 8.4
2017-Jul-18 17:31N 46°51' W 124°49'4 8.2
2017-Jul-18 17:00N 46°47' W 124°50'4 8.0
2017-Jul-18 16:30N 46°43' W 124°49'4 8.1
2017-Jul-18 16:00N 46°40' W 124°45'4 8.3
2017-Jul-18 15:30N 46°38' W 124°40'4 8.6
2017-Jul-18 15:00N 46°35' W 124°35'5 5.3
2017-Jul-18 14:00N 46°31' W 124°30'3 5.4
2017-Jul-18 13:31N 46°28' W 124°30'3 6.3
2017-Jul-18 13:00N 46°26' W 124°33'3 5.4
2017-Jul-18 12:31N 46°23' W 124°34'0 0.4
2017-Jul-18 12:00N 46°23' W 124°34'1 1.3
2017-Jul-18 11:30N 46°23' W 124°34'2 3.9
2017-Jul-18 11:00N 46°25' W 124°32'0 0.8
2017-Jul-18 10:30N 46°25' W 124°32'0 0.8
2017-Jul-18 10:01N 46°25' W 124°32'0 0.7
2017-Jul-18 09:30N 46°26' W 124°33'0 0.7
2017-Jul-18 09:00N 46°26' W 124°33'0 0.7
2017-Jul-18 08:31N 46°26' W 124°33'0 0.7
2017-Jul-18 08:01N 46°27' W 124°33'0 0.7
2017-Jul-18 07:30N 46°27' W 124°33'0 0.7
2017-Jul-18 07:00N 46°27' W 124°33'0 1.0
2017-Jul-18 06:30N 46°27' W 124°33'1 2.5
2017-Jul-18 06:01N 46°26' W 124°33'0 0.8
2017-Jul-18 05:30N 46°25' W 124°33'1 2.5
2017-Jul-18 05:00N 46°25' W 124°31'3 6.4
2017-Jul-18 04:30N 46°23' W 124°35'4 8.2
2017-Jul-18 04:00N 46°20' W 124°30'4 8.1
2017-Jul-18 03:30N 46°17' W 124°26'3 6.6
2017-Jul-18 03:01N 46°16' W 124°22'4 8.3
2017-Jul-18 02:30N 46°16' W 124°15'4 8.2
2017-Jul-18 02:00N 46°15' W 124°10'4 8.2
2017-Jul-18 01:30N 46°15' W 124°04'4 7.1
2017-Jul-18 01:01N 46°14' W 123°59'4 7.4
2017-Jul-18 00:31N 46°12' W 123°55'2 4.4
2017-Jul-18 00:00N 46°11' W 123°52'0 0.0
2017-Jul-17 23:30N 46°11' W 123°52'0 0.1
2017-Jul-17 23:01N 46°11' W 123°52'0 0.1
2017-Jul-17 22:31N 46°11' W 123°52'0 0.1
2017-Jul-17 22:00N 46°11' W 123°52'0 0.1
2017-Jul-17 21:30N 46°11' W 123°52'0 0.0
2017-Jul-17 21:00N 46°11' W 123°52'0 0.1
2017-Jul-17 20:30N 46°11' W 123°52'0 0.1
2017-Jul-17 20:00N 46°11' W 123°52'0 0.0
2017-Jul-17 19:31N 46°11' W 123°52'0 0.0
2017-Jul-17 19:01N 46°11' W 123°52'0 0.0
2017-Jul-17 18:31N 46°11' W 123°52'0 0.0
2017-Jul-17 18:01N 46°11' W 123°52'0 0.1
2017-Jul-17 17:31N 46°11' W 123°52'0 0.0
2017-Jul-17 17:00N 46°11' W 123°52'0 0.0
2017-Jul-17 16:31N 46°11' W 123°52'0 0.0
2017-Jul-17 16:00N 46°11' W 123°52'0 0.0
2017-Jul-17 15:30N 46°11' W 123°52'0 0.0
2017-Jul-17 15:00N 46°11' W 123°52'0 0.0
2017-Jul-17 14:30N 46°11' W 123°52'0 0.0
2017-Jul-17 14:00N 46°11' W 123°52'0 0.0
2017-Jul-17 13:30N 46°11' W 123°52'0 0.0
2017-Jul-17 13:01N 46°11' W 123°52'0 0.0
2017-Jul-17 12:30N 46°11' W 123°52'0 0.0
2017-Jul-17 12:00N 46°11' W 123°52'0 0.0
2017-Jul-17 11:31N 46°11' W 123°52'0 0.0
2017-Jul-17 11:01N 46°11' W 123°52'0 0.0
2017-Jul-17 10:30N 46°11' W 123°52'0 0.0
2017-Jul-17 10:00N 46°11' W 123°52'0 0.0
2017-Jul-17 09:30N 46°11' W 123°52'0 0.0
2017-Jul-17 09:00N 46°11' W 123°52'0 0.0
2017-Jul-17 08:31N 46°11' W 123°52'0 0.0
2017-Jul-17 08:00N 46°11' W 123°52'0 0.0
2017-Jul-17 07:31N 46°11' W 123°52'0 0.0
2017-Jul-17 07:01N 46°11' W 123°52'0 0.0
2017-Jul-17 06:31N 46°11' W 123°52'0 0.0
2017-Jul-17 06:00N 46°11' W 123°52'0 0.0
2017-Jul-17 05:30N 46°11' W 123°52'0 0.0
2017-Jul-17 05:01N 46°11' W 123°52'0 0.0
2017-Jul-17 04:31N 46°11' W 123°52'0 0.0
2017-Jul-17 04:00N 46°11' W 123°52'0 0.0
2017-Jul-17 03:31N 46°11' W 123°52'0 0.0
2017-Jul-17 03:00N 46°11' W 123°52'0 0.0
2017-Jul-17 02:31N 46°11' W 123°52'2 3.0
2017-Jul-17 02:00N 46°11' W 123°54'5 9.3
2017-Jul-17 01:30N 46°14' W 123°59'5 9.1
2017-Jul-17 01:00N 46°15' W 124°06'11 8.3
2017-Jul-16 23:45N 46°21' W 124°18'2 7.6
2017-Jul-16 23:30N 46°22' W 124°20'3 7.0
2017-Jul-16 23:01N 46°24' W 124°25'4 8.1
2017-Jul-16 22:30N 46°27' W 124°29'1 3.0
2017-Jul-16 22:00N 46°28' W 124°31'1 2.0
2017-Jul-16 21:30N 46°29' W 124°31'1 2.8
2017-Jul-16 21:00N 46°30' W 124°30'2 2.8
2017-Jul-16 20:19N 46°32' W 124°31'1 2.7
2017-Jul-16 20:00N 46°33' W 124°31'1 2.7
2017-Jul-16 19:30N 46°34' W 124°29'2 3.3
2017-Jul-16 19:00N 46°35' W 124°30'2 3.3
2017-Jul-16 18:30N 46°36' W 124°33'3 5.3
2017-Jul-16 18:00N 46°34' W 124°30'2 3.6
2017-Jul-16 17:30N 46°35' W 124°32'3 5.3
2017-Jul-16 17:01N 46°33' W 124°30'3 5.6
2017-Jul-16 16:30N 46°30' W 124°30'3 6.0
2017-Jul-16 16:01N 46°27' W 124°31'0 0.4
2017-Jul-16 15:30N 46°27' W 124°31'1 2.3
2017-Jul-16 15:00N 46°28' W 124°30'1 3.0
2017-Jul-16 14:31N 46°30' W 124°30'1 2.8
2017-Jul-16 14:01N 46°31' W 124°31'2 3.4
2017-Jul-16 13:30N 46°33' W 124°31'1 2.1
2017-Jul-16 13:00N 46°32' W 124°31'3 5.3
2017-Jul-16 12:30N 46°29' W 124°30'0 0.9
2017-Jul-16 12:00N 46°29' W 124°30'0 0.9
2017-Jul-16 11:31N 46°29' W 124°30'1 2.8
2017-Jul-16 11:00N 46°29' W 124°28'1 1.0
2017-Jul-16 10:30N 46°29' W 124°28'1 1.1
2017-Jul-16 10:00N 46°30' W 124°29'1 1.2
2017-Jul-16 09:31N 46°30' W 124°29'1 1.2
2017-Jul-16 09:00N 46°31' W 124°30'1 1.3
2017-Jul-16 08:30N 46°31' W 124°31'1 1.2
2017-Jul-16 08:00N 46°32' W 124°31'1 1.2
2017-Jul-16 07:30N 46°32' W 124°32'1 1.1
2017-Jul-16 07:00N 46°32' W 124°33'0 0.9
2017-Jul-16 06:30N 46°32' W 124°33'1 1.4
2017-Jul-16 06:00N 46°32' W 124°32'1 2.9
2017-Jul-16 05:30N 46°31' W 124°31'3 5.4
2017-Jul-16 05:00N 46°28' W 124°30'1 1.5
2017-Jul-16 04:30N 46°29' W 124°30'4 7.3
2017-Jul-16 04:00N 46°33' W 124°29'2 3.5
2017-Jul-16 03:30N 46°31' W 124°30'3 6.1
2017-Jul-16 03:00N 46°28' W 124°30'5 9.3
2017-Jul-16 02:30N 46°26' W 124°23'4 8.8
2017-Jul-16 02:00N 46°24' W 124°18'4 8.8
2017-Jul-16 01:30N 46°20' W 124°14'4 8.4
2017-Jul-16 01:01N 46°17' W 124°10'4 8.5
2017-Jul-16 00:30N 46°15' W 124°04'4 7.6
2017-Jul-16 00:00N 46°14' W 123°59'4 7.5
2017-Jul-15 23:30N 46°12' W 123°55'2 4.3
2017-Jul-15 23:00N 46°11' W 123°52'0 0.0
2017-Jul-15 22:30N 46°11' W 123°52'0 0.0
2017-Jul-15 22:00N 46°11' W 123°52'0 0.0
2017-Jul-15 21:26N 46°11' W 123°52'0 0.0
2017-Jul-15 20:54N 46°11' W 123°52'0 0.0
2017-Jul-15 20:25N 46°11' W 123°52'0 0.0
2017-Jul-15 19:47N 46°11' W 123°52'0 0.0
2017-Jul-15 18:26N 46°11' W 123°52'0 0.0
2017-Jul-15 18:01N 46°11' W 123°52'0 0.0
2017-Jul-15 17:15N 46°11' W 123°52'0 0.0
2017-Jul-15 17:00N 46°11' W 123°52'0 0.0
2017-Jul-15 16:31N 46°11' W 123°52'0 0.0
2017-Jul-15 15:50N 46°11' W 123°52'0 0.0
2017-Jul-15 15:31N 46°11' W 123°52'0 0.0
2017-Jul-15 15:00N 46°11' W 123°52'0 0.0
2017-Jul-15 14:01N 46°11' W 123°52'0 0.0
2017-Jul-15 13:30N 46°11' W 123°52'0 0.0
2017-Jul-15 13:00N 46°11' W 123°52'0 0.0
2017-Jul-15 12:08N 46°11' W 123°52'0 0.0
2017-Jul-15 12:01N 46°11' W 123°52'0 0.0
2017-Jul-15 11:31N 46°11' W 123°52'0 0.0
2017-Jul-15 11:00N 46°11' W 123°52'0 0.0
2017-Jul-15 10:30N 46°11' W 123°52'0 0.0
2017-Jul-15 10:01N 46°11' W 123°52'0 0.0
2017-Jul-15 09:30N 46°11' W 123°52'0 0.0
2017-Jul-15 09:00N 46°11' W 123°52'0 0.0
2017-Jul-15 08:31N 46°11' W 123°52'0 0.0
2017-Jul-15 08:00N 46°11' W 123°52'0 0.0
2017-Jul-15 07:30N 46°11' W 123°52'0 0.0
2017-Jul-15 07:01N 46°11' W 123°52'0 0.0
2017-Jul-15 06:30N 46°11' W 123°52'0 0.0
2017-Jul-15 06:00N 46°11' W 123°52'0 0.0
2017-Jul-15 05:30N 46°11' W 123°52'0 0.0
2017-Jul-15 05:01N 46°11' W 123°52'0 0.0
2017-Jul-15 04:22N 46°11' W 123°52'0 0.0
2017-Jul-15 04:00N 46°11' W 123°52'0 0.0
2017-Jul-15 03:31N 46°11' W 123°52'0 0.0
2017-Jul-15 03:00N 46°11' W 123°52'0 0.0
2017-Jul-15 02:30N 46°11' W 123°52'0 0.0
2017-Jul-15 02:01N 46°11' W 123°52'0 0.0
2017-Jul-15 01:31N 46°11' W 123°52'0 0.0
2017-Jul-15 01:01N 46°11' W 123°52'0 0.0
2017-Jul-15 00:31N 46°11' W 123°52'0 0.0
2017-Jul-15 00:00N 46°11' W 123°52'0 0.0
2017-Jul-14 23:30N 46°11' W 123°52'0 0.0
2017-Jul-14 23:01N 46°11' W 123°52'0 0.1
2017-Jul-14 22:31N 46°11' W 123°52'0 0.0
2017-Jul-14 22:01N 46°11' W 123°52'0 0.0
2017-Jul-14 21:31N 46°11' W 123°52'0 0.0
2017-Jul-14 21:01N 46°11' W 123°52'1 2.1
2017-Jul-14 20:30N 46°12' W 123°50'0 0.0
2017-Jul-14 20:01N 46°12' W 123°50'1 2.2
2017-Jul-14 19:30N 46°11' W 123°52'0 0.0
2017-Jul-14 19:01N 46°11' W 123°52'0 0.0
2017-Jul-14 18:31N 46°11' W 123°52'0 0.0
2017-Jul-14 18:01N 46°11' W 123°52'0 0.0
2017-Jul-14 17:30N 46°11' W 123°52'0 0.0
2017-Jul-14 17:01N 46°11' W 123°52'0 0.0
2017-Jul-14 16:31N 46°11' W 123°52'0 0.0
2017-Jul-14 16:01N 46°11' W 123°52'0 0.0
2017-Jul-14 15:30N 46°11' W 123°52'0 0.0
2017-Jul-14 15:01N 46°11' W 123°52'0 0.0
2017-Jul-14 14:20N 46°11' W 123°52'0 0.0
2017-Jul-14 14:00N 46°11' W 123°52'0 0.0
2017-Jul-14 13:31N 46°11' W 123°52'0 0.0
2017-Jul-14 13:01N 46°11' W 123°52'  
Track history (hours):
 
Tides and Currents Weather Stations Pressure Air Temp Water Temp Dewpoint Dewpoint Depression Visibility Wind Speed Wind Dir Waves Ship Positions

Perseverance

Owner: Cooper, Mark E, Toledo, OR. More information available from US FCC via Universal Licensing System and Coast Guard Vessel Documentation Center.

Last reported at 2017-Jul-24 13:00 UTC. Time now 2017-Jul-24 14:23 UTC.
Position N 46°38' W 124°20'.

Type: Fishing. MMSI: 367618000.

Date/timePositionNaut miles runAvg speedWind from/ knotsBaromVisibWave heightAir tempDewpointWater temp
2017-Jul-24 13:00N 46°38' W 124°20'3 6.9
2017-Jul-24 12:31N 46°42' W 124°22'4 7.1
2017-Jul-24 12:00N 46°45' W 124°23'4 7.1
2017-Jul-24 11:30N 46°48' W 124°25'4 7.1
2017-Jul-24 11:00N 46°52' W 124°27'4 7.3
2017-Jul-24 10:30N 46°55' W 124°29'4 7.5
2017-Jul-24 10:01N 46°59' W 124°31'3 6.5
2017-Jul-24 09:31N 47°02' W 124°33'3 6.7
2017-Jul-24 09:00N 47°05' W 124°35'4 7.4
2017-Jul-24 08:30N 47°08' W 124°37'6 7.7
2017-Jul-24 07:47N 47°13' W 124°40'2 7.7
2017-Jul-24 07:30N 47°15' W 124°41'4 7.6
2017-Jul-24 06:59N 47°19' W 124°43'10 0.4
2017-Jul-23 06:33N 47°10' W 124°49'0 8.8
2017-Jul-23 06:30N 47°10' W 124°49'4 8.4
2017-Jul-23 06:00N 47°06' W 124°47'5 8.3
2017-Jul-23 05:24N 47°01' W 124°45'3 8.5
2017-Jul-23 05:00N 46°58' W 124°44'4 7.2
2017-Jul-23 04:30N 46°55' W 124°42'4 8.8
2017-Jul-23 04:01N 46°51' W 124°40'5 9.0
2017-Jul-23 03:31N 46°46' W 124°37'5 9.5
2017-Jul-23 03:00N 46°42' W 124°35'5 9.1
2017-Jul-23 02:30N 46°38' W 124°33'4 7.2
2017-Jul-23 02:01N 46°34' W 124°32'2 3.5
2017-Jul-23 01:31N 46°32' W 124°32'3 6.8
2017-Jul-23 01:01N 46°29' W 124°31'3 5.3
2017-Jul-23 00:30N 46°27' W 124°32'4 8.1
2017-Jul-23 00:00N 46°24' W 124°28'5 8.9
2017-Jul-22 23:27N 46°22' W 124°21'4 8.7
2017-Jul-22 23:00N 46°20' W 124°17'5 9.2
2017-Jul-22 22:30N 46°17' W 124°11'5 9.5
2017-Jul-22 22:01N 46°15' W 124°05'5 9.2
2017-Jul-22 21:30N 46°14' W 123°58'4 8.6
2017-Jul-22 21:01N 46°11' W 123°53'1 1.8
2017-Jul-22 20:30N 46°11' W 123°52'0 0.0
2017-Jul-22 20:01N 46°11' W 123°52'0 0.0
2017-Jul-22 19:31N 46°11' W 123°52'0 0.0
2017-Jul-22 19:00N 46°11' W 123°52'0 0.0
2017-Jul-22 18:31N 46°11' W 123°52'0 0.0
2017-Jul-22 18:00N 46°11' W 123°52'0 0.0
2017-Jul-22 17:31N 46°11' W 123°52'0 0.0
2017-Jul-22 17:01N 46°11' W 123°52'0 0.0
2017-Jul-22 16:31N 46°11' W 123°52'0 0.0
2017-Jul-22 16:00N 46°11' W 123°52'0 0.0
2017-Jul-22 15:31N 46°11' W 123°52'0 0.0
2017-Jul-22 15:01N 46°11' W 123°52'0 0.0
2017-Jul-22 14:00N 46°11' W 123°52'0 0.0
2017-Jul-22 13:31N 46°11' W 123°52'0 0.0
2017-Jul-22 13:01N 46°11' W 123°52'0 0.0
2017-Jul-22 12:31N 46°11' W 123°52'0 0.0
2017-Jul-22 12:00N 46°11' W 123°52'0 0.0
2017-Jul-22 11:31N 46°11' W 123°52'0 0.0
2017-Jul-22 11:00N 46°11' W 123°52'0 0.0
2017-Jul-22 10:30N 46°11' W 123°52'0 0.0
2017-Jul-22 10:01N 46°11' W 123°52'0 0.0
2017-Jul-22 09:30N 46°11' W 123°52'0 0.0
2017-Jul-22 09:01N 46°11' W 123°52'0 0.0
2017-Jul-22 08:31N 46°11' W 123°52'0 0.0
2017-Jul-22 08:00N 46°11' W 123°52'0 0.0
2017-Jul-22 07:31N 46°11' W 123°52'0 0.0
2017-Jul-22 07:00N 46°11' W 123°52'0 0.0
2017-Jul-22 06:30N 46°11' W 123°52'0 0.0
2017-Jul-22 06:00N 46°11' W 123°52'0 0.0
2017-Jul-22 05:30N 46°11' W 123°52'0 0.0
2017-Jul-22 05:00N 46°11' W 123°52'0 0.0
2017-Jul-22 04:30N 46°11' W 123°52'0 0.0
2017-Jul-22 04:00N 46°11' W 123°52'0 0.0
2017-Jul-22 03:31N 46°11' W 123°52'0 0.0
2017-Jul-22 03:00N 46°11' W 123°52'0 0.0
2017-Jul-22 02:30N 46°11' W 123°52'0 0.0
2017-Jul-22 02:00N 46°11' W 123°52'0 0.0
2017-Jul-22 01:30N 46°11' W 123°52'0 0.0
2017-Jul-22 01:01N 46°11' W 123°52'0 0.0
2017-Jul-22 00:31N 46°11' W 123°52'0 0.0
2017-Jul-22 00:00N 46°11' W 123°52'0 0.0
2017-Jul-21 23:30N 46°11' W 123°52'0 0.0
2017-Jul-21 23:00N 46°11' W 123°52'0 0.0
2017-Jul-21 22:30N 46°11' W 123°52'0 0.0
2017-Jul-21 22:00N 46°11' W 123°52'0 0.0
2017-Jul-21 21:30N 46°11' W 123°52'1 2.1
2017-Jul-21 21:00N 46°12' W 123°50'0 0.0
2017-Jul-21 20:31N 46°12' W 123°50'1 2.2
2017-Jul-21 20:01N 46°11' W 123°52'0 0.0
2017-Jul-21 19:30N 46°11' W 123°52'0 0.0
2017-Jul-21 19:00N 46°11' W 123°52'0 0.0
2017-Jul-21 18:30N 46°11' W 123°52'0 0.0
2017-Jul-21 18:00N 46°11' W 123°52'0 0.0
2017-Jul-21 17:30N 46°11' W 123°52'0 0.0
2017-Jul-21 17:01N 46°11' W 123°52'0 0.0
2017-Jul-21 16:30N 46°11' W 123°52'0 0.0
2017-Jul-21 16:00N 46°11' W 123°52'3 5.1
2017-Jul-21 15:30N 46°12' W 123°55'3 6.7
2017-Jul-21 15:01N 46°14' W 123°59'4 7.3
2017-Jul-21 14:31N 46°15' W 124°04'3 5.7
2017-Jul-21 14:00N 46°17' W 124°07'3 6.1
2017-Jul-21 13:31N 46°20' W 124°09'3 6.3
2017-Jul-21 13:00N 46°23' W 124°11'3 6.7
2017-Jul-21 12:30N 46°26' W 124°13'3 6.8
2017-Jul-21 12:00N 46°29' W 124°15'3 6.8
2017-Jul-21 11:30N 46°32' W 124°17'3 6.7
2017-Jul-21 11:00N 46°35' W 124°20'3 6.7
2017-Jul-21 10:31N 46°38' W 124°22'3 6.9
2017-Jul-21 10:00N 46°41' W 124°24'4 7.1
2017-Jul-21 09:31N 46°44' W 124°26'4 7.3
2017-Jul-21 09:00N 46°48' W 124°28'4 7.3
2017-Jul-21 08:30N 46°51' W 124°30'4 7.3
2017-Jul-21 08:00N 46°54' W 124°33'4 7.3
2017-Jul-21 07:30N 46°57' W 124°35'4 7.3
2017-Jul-21 07:00N 47°01' W 124°38'7 0.4
2017-Jul-20 15:35N 47°07' W 124°39'3 9.8
2017-Jul-20 15:14N 47°04' W 124°37'4 9.6
2017-Jul-20 14:46N 46°60' W 124°35'810.4
2017-Jul-20 14:00N 46°53' W 124°31'510.1
2017-Jul-20 13:31N 46°48' W 124°28'510.1
2017-Jul-20 13:00N 46°43' W 124°25'510.4
2017-Jul-20 12:30N 46°38' W 124°23'510.5
2017-Jul-20 12:01N 46°33' W 124°20'510.3
2017-Jul-20 11:30N 46°29' W 124°17'510.0
2017-Jul-20 11:00N 46°24' W 124°15'510.1
2017-Jul-20 10:30N 46°19' W 124°12'510.6
2017-Jul-20 10:01N 46°15' W 124°07'612.8
2017-Jul-20 09:31N 46°14' W 123°58'5 9.8
2017-Jul-20 09:00N 46°11' W 123°52'0 0.0
2017-Jul-20 08:30N 46°11' W 123°52'0 0.0
2017-Jul-20 08:01N 46°11' W 123°52'0 0.0
2017-Jul-20 07:30N 46°11' W 123°52'0 0.0
2017-Jul-20 07:01N 46°11' W 123°52'0 0.0
2017-Jul-20 06:31N 46°11' W 123°52'0 0.0
2017-Jul-20 06:01N 46°11' W 123°52'0 0.0
2017-Jul-20 05:30N 46°11' W 123°52'0 0.0
2017-Jul-20 05:01N 46°11' W 123°52'0 0.0
2017-Jul-20 04:30N 46°11' W 123°52'0 0.0
2017-Jul-20 04:00N 46°11' W 123°52'0 0.0
2017-Jul-20 03:30N 46°11' W 123°52'2 3.4
2017-Jul-20 03:00N 46°12' W 123°54'5 9.2
2017-Jul-20 02:30N 46°14' W 123°60'510.3
2017-Jul-20 02:00N 46°16' W 124°07'4 8.6
2017-Jul-20 01:30N 46°19' W 124°10'4 8.6
2017-Jul-20 01:01N 46°23' W 124°13'5 9.2
2017-Jul-20 00:31N 46°27' W 124°16'5 9.4
2017-Jul-20 00:00N 46°31' W 124°19'5 9.2
2017-Jul-19 23:30N 46°36' W 124°22'5 9.3
2017-Jul-19 23:00N 46°40' W 124°25'5 9.8
2017-Jul-19 22:30N 46°44' W 124°28'5 9.7
2017-Jul-19 22:00N 46°49' W 124°31'5 9.7
2017-Jul-19 21:30N 46°53' W 124°34'5 9.8
2017-Jul-19 21:00N 46°57' W 124°37'5 9.3
2017-Jul-19 20:30N 47°02' W 124°40'34 3.9
2017-Jul-19 11:34N 47°33' W 124°60'0 3.7
2017-Jul-19 11:30N 47°34' W 125°00'3 4.2
2017-Jul-19 10:54N 47°36' W 125°02'0 0.3
2017-Jul-19 10:30N 47°36' W 125°02'0 0.2
2017-Jul-19 10:00N 47°36' W 125°02'0 0.3
2017-Jul-19 09:30N 47°36' W 125°02'0 0.3
2017-Jul-19 08:55N 47°36' W 125°03'0 0.4
2017-Jul-19 08:26N 47°36' W 125°03'0 0.4
2017-Jul-19 08:00N 47°36' W 125°03'0 0.4
2017-Jul-19 07:25N 47°37' W 125°03'0 0.4
2017-Jul-19 06:59N 47°37' W 125°03'0 0.4
2017-Jul-19 06:30N 47°37' W 125°04'0 0.6
2017-Jul-19 05:52N 47°37' W 125°04'0 0.5
2017-Jul-19 05:29N 47°37' W 125°04'0 0.3
2017-Jul-19 04:58N 47°37' W 125°05'0 0.9
2017-Jul-19 04:28N 47°36' W 125°05'2 4.2
2017-Jul-19 03:52N 47°34' W 125°03'0 0.7
2017-Jul-19 03:30N 47°34' W 125°03'2 2.6
2017-Jul-19 02:39N 47°36' W 125°05'1 4.4
2017-Jul-19 02:30N 47°37' W 125°05'1 2.5
2017-Jul-19 01:58N 47°36' W 125°04'4 3.1
2017-Jul-19 00:38N 47°32' W 125°01'1 8.1
2017-Jul-19 00:30N 47°33' W 125°02'11 6.6
2017-Jul-18 22:52N 47°27' W 124°49'1 2.6
2017-Jul-18 22:23N 47°27' W 124°51'4 7.4
2017-Jul-18 21:51N 47°24' W 124°47'3 8.7
2017-Jul-18 21:30N 47°21' W 124°46'4 7.6
2017-Jul-18 21:00N 47°18' W 124°46'4 7.6
2017-Jul-18 20:30N 47°14' W 124°47'4 8.2
2017-Jul-18 20:00N 47°10' W 124°48'4 7.9
2017-Jul-18 19:30N 47°07' W 124°51'4 7.4
2017-Jul-18 19:00N 47°03' W 124°48'4 8.1
2017-Jul-18 18:30N 46°60' W 124°49'4 8.5
2017-Jul-18 18:01N 46°55' W 124°49'4 8.4
2017-Jul-18 17:31N 46°51' W 124°49'4 8.2
2017-Jul-18 17:00N 46°47' W 124°50'4 8.0
2017-Jul-18 16:30N 46°43' W 124°49'4 8.1
2017-Jul-18 16:00N 46°40' W 124°45'4 8.3
2017-Jul-18 15:30N 46°38' W 124°40'4 8.6
2017-Jul-18 15:00N 46°35' W 124°35'5 5.3
2017-Jul-18 14:00N 46°31' W 124°30'3 5.4
2017-Jul-18 13:31N 46°28' W 124°30'3 6.3
2017-Jul-18 13:00N 46°26' W 124°33'3 5.4
2017-Jul-18 12:31N 46°23' W 124°34'0 0.4
2017-Jul-18 12:00N 46°23' W 124°34'1 1.3
2017-Jul-18 11:30N 46°23' W 124°34'2 3.9
2017-Jul-18 11:00N 46°25' W 124°32'0 0.8
2017-Jul-18 10:30N 46°25' W 124°32'0 0.8
2017-Jul-18 10:01N 46°25' W 124°32'0 0.7
2017-Jul-18 09:30N 46°26' W 124°33'0 0.7
2017-Jul-18 09:00N 46°26' W 124°33'0 0.7
2017-Jul-18 08:31N 46°26' W 124°33'0 0.7
2017-Jul-18 08:01N 46°27' W 124°33'0 0.7
2017-Jul-18 07:30N 46°27' W 124°33'0 0.7
2017-Jul-18 07:00N 46°27' W 124°33'0 1.0
2017-Jul-18 06:30N 46°27' W 124°33'1 2.5
2017-Jul-18 06:01N 46°26' W 124°33'0 0.8
2017-Jul-18 05:30N 46°25' W 124°33'1 2.5
2017-Jul-18 05:00N 46°25' W 124°31'3 6.4
2017-Jul-18 04:30N 46°23' W 124°35'4 8.2
2017-Jul-18 04:00N 46°20' W 124°30'4 8.1
2017-Jul-18 03:30N 46°17' W 124°26'3 6.6
2017-Jul-18 03:01N 46°16' W 124°22'4 8.3
2017-Jul-18 02:30N 46°16' W 124°15'4 8.2
2017-Jul-18 02:00N 46°15' W 124°10'4 8.2
2017-Jul-18 01:30N 46°15' W 124°04'4 7.1
2017-Jul-18 01:01N 46°14' W 123°59'4 7.4
2017-Jul-18 00:31N 46°12' W 123°55'2 4.4
2017-Jul-18 00:00N 46°11' W 123°52'0 0.0
2017-Jul-17 23:30N 46°11' W 123°52'0 0.1
2017-Jul-17 23:01N 46°11' W 123°52'0 0.1
2017-Jul-17 22:31N 46°11' W 123°52'0 0.1
2017-Jul-17 22:00N 46°11' W 123°52'0 0.1
2017-Jul-17 21:30N 46°11' W 123°52'0 0.0
2017-Jul-17 21:00N 46°11' W 123°52'0 0.1
2017-Jul-17 20:30N 46°11' W 123°52'0 0.1
2017-Jul-17 20:00N 46°11' W 123°52'0 0.0
2017-Jul-17 19:31N 46°11' W 123°52'0 0.0
2017-Jul-17 19:01N 46°11' W 123°52'0 0.0
2017-Jul-17 18:31N 46°11' W 123°52'0 0.0
2017-Jul-17 18:01N 46°11' W 123°52'0 0.1
2017-Jul-17 17:31N 46°11' W 123°52'0 0.0
2017-Jul-17 17:00N 46°11' W 123°52'0 0.0
2017-Jul-17 16:31N 46°11' W 123°52'0 0.0
2017-Jul-17 16:00N 46°11' W 123°52'0 0.0
2017-Jul-17 15:30N 46°11' W 123°52'0 0.0
2017-Jul-17 15:00N 46°11' W 123°52'0 0.0
2017-Jul-17 14:30N 46°11' W 123°52'0 0.0
2017-Jul-17 14:00N 46°11' W 123°52'0 0.0
2017-Jul-17 13:30N 46°11' W 123°52'0 0.0
2017-Jul-17 13:01N 46°11' W 123°52'0 0.0
2017-Jul-17 12:30N 46°11' W 123°52'0 0.0
2017-Jul-17 12:00N 46°11' W 123°52'0 0.0
2017-Jul-17 11:31N 46°11' W 123°52'0 0.0
2017-Jul-17 11:01N 46°11' W 123°52'0 0.0
2017-Jul-17 10:30N 46°11' W 123°52'0 0.0
2017-Jul-17 10:00N 46°11' W 123°52'0 0.0
2017-Jul-17 09:30N 46°11' W 123°52'0 0.0
2017-Jul-17 09:00N 46°11' W 123°52'0 0.0
2017-Jul-17 08:31N 46°11' W 123°52'0 0.0
2017-Jul-17 08:00N 46°11' W 123°52'0 0.0
2017-Jul-17 07:31N 46°11' W 123°52'0 0.0
2017-Jul-17 07:01N 46°11' W 123°52'0 0.0
2017-Jul-17 06:31N 46°11' W 123°52'0 0.0
2017-Jul-17 06:00N 46°11' W 123°52'0 0.0
2017-Jul-17 05:30N 46°11' W 123°52'0 0.0
2017-Jul-17 05:01N 46°11' W 123°52'0 0.0
2017-Jul-17 04:31N 46°11' W 123°52'0 0.0
2017-Jul-17 04:00N 46°11' W 123°52'0 0.0
2017-Jul-17 03:31N 46°11' W 123°52'0 0.0
2017-Jul-17 03:00N 46°11' W 123°52'0 0.0
2017-Jul-17 02:31N 46°11' W 123°52'2 3.0
2017-Jul-17 02:00N 46°11' W 123°54'5 9.3
2017-Jul-17 01:30N 46°14' W 123°59'5 9.1
2017-Jul-17 01:00N 46°15' W 124°06'11 8.3
2017-Jul-16 23:45N 46°21' W 124°18'2 7.6
2017-Jul-16 23:30N 46°22' W 124°20'3 7.0
2017-Jul-16 23:01N 46°24' W 124°25'4 8.1
2017-Jul-16 22:30N 46°27' W 124°29'1 3.0
2017-Jul-16 22:00N 46°28' W 124°31'1 2.0
2017-Jul-16 21:30N 46°29' W 124°31'1 2.8
2017-Jul-16 21:00N 46°30' W 124°30'2 2.8
2017-Jul-16 20:19N 46°32' W 124°31'1 2.7
2017-Jul-16 20:00N 46°33' W 124°31'1 2.7
2017-Jul-16 19:30N 46°34' W 124°29'2 3.3
2017-Jul-16 19:00N 46°35' W 124°30'2 3.3
2017-Jul-16 18:30N 46°36' W 124°33'3 5.3
2017-Jul-16 18:00N 46°34' W 124°30'2 3.6
2017-Jul-16 17:30N 46°35' W 124°32'3 5.3
2017-Jul-16 17:01N 46°33' W 124°30'3 5.6
2017-Jul-16 16:30N 46°30' W 124°30'3 6.0
2017-Jul-16 16:01N 46°27' W 124°31'0 0.4
2017-Jul-16 15:30N 46°27' W 124°31'1 2.3
2017-Jul-16 15:00N 46°28' W 124°30'1 3.0
2017-Jul-16 14:31N 46°30' W 124°30'1 2.8
2017-Jul-16 14:01N 46°31' W 124°31'2 3.4
2017-Jul-16 13:30N 46°33' W 124°31'1 2.1
2017-Jul-16 13:00N 46°32' W 124°31'3 5.3
2017-Jul-16 12:30N 46°29' W 124°30'0 0.9
2017-Jul-16 12:00N 46°29' W 124°30'0 0.9
2017-Jul-16 11:31N 46°29' W 124°30'1 2.8
2017-Jul-16 11:00N 46°29' W 124°28'1 1.0
2017-Jul-16 10:30N 46°29' W 124°28'1 1.1
2017-Jul-16 10:00N 46°30' W 124°29'1 1.2
2017-Jul-16 09:31N 46°30' W 124°29'1 1.2
2017-Jul-16 09:00N 46°31' W 124°30'1 1.3
2017-Jul-16 08:30N 46°31' W 124°31'1 1.2
2017-Jul-16 08:00N 46°32' W 124°31'1 1.2
2017-Jul-16 07:30N 46°32' W 124°32'1 1.1
2017-Jul-16 07:00N 46°32' W 124°33'0 0.9
2017-Jul-16 06:30N 46°32' W 124°33'1 1.4
2017-Jul-16 06:00N 46°32' W 124°32'1 2.9
2017-Jul-16 05:30N 46°31' W 124°31'3 5.4
2017-Jul-16 05:00N 46°28' W 124°30'1 1.5
2017-Jul-16 04:30N 46°29' W 124°30'4 7.3
2017-Jul-16 04:00N 46°33' W 124°29'2 3.5
2017-Jul-16 03:30N 46°31' W 124°30'3 6.1
2017-Jul-16 03:00N 46°28' W 124°30'5 9.3
2017-Jul-16 02:30N 46°26' W 124°23'4 8.8
2017-Jul-16 02:00N 46°24' W 124°18'4 8.8
2017-Jul-16 01:30N 46°20' W 124°14'4 8.4
2017-Jul-16 01:01N 46°17' W 124°10'4 8.5
2017-Jul-16 00:30N 46°15' W 124°04'4 7.6
2017-Jul-16 00:00N 46°14' W 123°59'4 7.5
2017-Jul-15 23:30N 46°12' W 123°55'2 4.3
2017-Jul-15 23:00N 46°11' W 123°52'0 0.0
2017-Jul-15 22:30N 46°11' W 123°52'0 0.0
2017-Jul-15 22:00N 46°11' W 123°52'0 0.0
2017-Jul-15 21:26N 46°11' W 123°52'0 0.0
2017-Jul-15 20:54N 46°11' W 123°52'0 0.0
2017-Jul-15 20:25N 46°11' W 123°52'0 0.0
2017-Jul-15 19:47N 46°11' W 123°52'0 0.0
2017-Jul-15 18:26N 46°11' W 123°52'0 0.0
2017-Jul-15 18:01N 46°11' W 123°52'0 0.0
2017-Jul-15 17:15N 46°11' W 123°52'0 0.0
2017-Jul-15 17:00N 46°11' W 123°52'0 0.0
2017-Jul-15 16:31N 46°11' W 123°52'0 0.0
2017-Jul-15 15:50N 46°11' W 123°52'0 0.0
2017-Jul-15 15:31N 46°11' W 123°52'0 0.0
2017-Jul-15 15:00N 46°11' W 123°52'0 0.0
2017-Jul-15 14:01N 46°11' W 123°52'0 0.0
2017-Jul-15 13:30N 46°11' W 123°52'0 0.0
2017-Jul-15 13:00N 46°11' W 123°52'0 0.0
2017-Jul-15 12:08N 46°11' W 123°52'0 0.0
2017-Jul-15 12:01N 46°11' W 123°52'0 0.0
2017-Jul-15 11:31N 46°11' W 123°52'0 0.0
2017-Jul-15 11:00N 46°11' W 123°52'0 0.0
2017-Jul-15 10:30N 46°11' W 123°52'0 0.0
2017-Jul-15 10:01N 46°11' W 123°52'0 0.0
2017-Jul-15 09:30N 46°11' W 123°52'0 0.0
2017-Jul-15 09:00N 46°11' W 123°52'0 0.0
2017-Jul-15 08:31N 46°11' W 123°52'0 0.0
2017-Jul-15 08:00N 46°11' W 123°52'0 0.0
2017-Jul-15 07:30N 46°11' W 123°52'0 0.0
2017-Jul-15 07:01N 46°11' W 123°52'0 0.0
2017-Jul-15 06:30N 46°11' W 123°52'0 0.0
2017-Jul-15 06:00N 46°11' W 123°52'0 0.0
2017-Jul-15 05:30N 46°11' W 123°52'0 0.0
2017-Jul-15 05:01N 46°11' W 123°52'0 0.0
2017-Jul-15 04:22N 46°11' W 123°52'0 0.0
2017-Jul-15 04:00N 46°11' W 123°52'0 0.0
2017-Jul-15 03:31N 46°11' W 123°52'0 0.0
2017-Jul-15 03:00N 46°11' W 123°52'0 0.0
2017-Jul-15 02:30N 46°11' W 123°52'0 0.0
2017-Jul-15 02:01N 46°11' W 123°52'0 0.0
2017-Jul-15 01:31N 46°11' W 123°52'0 0.0
2017-Jul-15 01:01N 46°11' W 123°52'0 0.0
2017-Jul-15 00:31N 46°11' W 123°52'0 0.0
2017-Jul-15 00:00N 46°11' W 123°52'0 0.0
2017-Jul-14 23:30N 46°11' W 123°52'0 0.0
2017-Jul-14 23:01N 46°11' W 123°52'0 0.1
2017-Jul-14 22:31N 46°11' W 123°52'0 0.0
2017-Jul-14 22:01N 46°11' W 123°52'0 0.0
2017-Jul-14 21:31N 46°11' W 123°52'0 0.0
2017-Jul-14 21:01N 46°11' W 123°52'1 2.1
2017-Jul-14 20:30N 46°12' W 123°50'0 0.0
2017-Jul-14 20:01N 46°12' W 123°50'1 2.2
2017-Jul-14 19:30N 46°11' W 123°52'0 0.0
2017-Jul-14 19:01N 46°11' W 123°52'0 0.0
2017-Jul-14 18:31N 46°11' W 123°52'0 0.0
2017-Jul-14 18:01N 46°11' W 123°52'0 0.0
2017-Jul-14 17:30N 46°11' W 123°52'0 0.0
2017-Jul-14 17:01N 46°11' W 123°52'0 0.0
2017-Jul-14 16:31N 46°11' W 123°52'0 0.0
2017-Jul-14 16:01N 46°11' W 123°52'0 0.0
2017-Jul-14 15:30N 46°11' W 123°52'0 0.0
2017-Jul-14 15:01N 46°11' W 123°52'0 0.0
2017-Jul-14 14:20N 46°11' W 123°52'0 0.0
2017-Jul-14 14:00N 46°11' W 123°52'0 0.0
2017-Jul-14 13:31N 46°11' W 123°52'0 0.0
2017-Jul-14 13:01N 46°11' W 123°52'  

Dump ship's entire track history